createdAt,value
2017-12-13T00:00:28.805Z,80.20
2017-12-13T00:01:03.222Z,80.70
2017-12-13T00:01:37.667Z,79.90
2017-12-13T00:02:11.322Z,79.90
2017-12-13T00:02:45.007Z,79.80
2017-12-13T00:03:19.455Z,79.90
2017-12-13T00:03:53.111Z,79.80
2017-12-13T00:04:27.579Z,80.00
2017-12-13T00:05:01.423Z,80.00
2017-12-13T00:05:35.099Z,79.90
2017-12-13T00:06:08.779Z,79.90
2017-12-13T00:06:43.240Z,79.90
2017-12-13T00:07:16.922Z,79.90
2017-12-13T00:07:50.594Z,79.80
2017-12-13T00:08:24.270Z,79.90
2017-12-13T00:08:57.954Z,80.00
2017-12-13T00:09:32.394Z,79.70
2017-12-13T00:10:06.045Z,79.60
2017-12-13T00:10:40.473Z,79.70
2017-12-13T00:11:14.133Z,79.60
2017-12-13T00:11:48.590Z,79.60
2017-12-13T00:12:22.274Z,79.50
2017-12-13T00:12:55.958Z,79.50
2017-12-13T00:13:29.628Z,79.60
2017-12-13T00:14:03.311Z,79.50
2017-12-13T00:14:37.738Z,79.70
2017-12-13T00:15:11.421Z,79.70
2017-12-13T00:15:45.110Z,79.60
2017-12-13T00:16:18.765Z,79.70
2017-12-13T00:16:52.494Z,79.70
2017-12-13T00:17:26.325Z,79.70
2017-12-13T00:18:00.000Z,79.70
2017-12-13T00:18:33.659Z,79.70
2017-12-13T00:19:08.091Z,79.70
2017-12-13T00:19:41.750Z,79.70
2017-12-13T00:20:16.769Z,79.70
2017-12-13T00:20:51.206Z,79.80
2017-12-13T00:21:24.867Z,79.80
2017-12-13T00:21:59.329Z,79.70
2017-12-13T00:22:32.983Z,79.70
2017-12-13T00:23:06.654Z,79.70
2017-12-13T00:23:40.322Z,79.70
2017-12-13T00:24:13.974Z,79.50
2017-12-13T00:24:47.710Z,79.50
2017-12-13T00:25:21.568Z,79.50
2017-12-13T00:25:55.239Z,79.50
2017-12-13T00:26:28.901Z,79.60
2017-12-13T00:27:02.605Z,79.50
2017-12-13T00:27:36.271Z,79.50
2017-12-13T00:28:10.698Z,79.40
2017-12-13T00:28:44.371Z,79.40
2017-12-13T00:29:18.797Z,79.60
2017-12-13T00:29:52.454Z,79.60
2017-12-13T00:30:26.894Z,79.70
2017-12-13T00:31:00.566Z,79.60
2017-12-13T00:31:35.004Z,79.60
2017-12-13T00:32:08.707Z,79.70
2017-12-13T00:32:42.396Z,79.60
2017-12-13T00:33:16.093Z,79.50
2017-12-13T00:33:49.766Z,79.60
2017-12-13T00:34:23.441Z,79.60
2017-12-13T00:34:57.128Z,79.60
2017-12-13T00:35:30.799Z,79.50
2017-12-13T00:36:04.477Z,79.50
2017-12-13T00:36:38.933Z,79.60
2017-12-13T00:37:12.633Z,79.60
2017-12-13T00:37:46.310Z,79.60
2017-12-13T00:38:19.983Z,79.50
2017-12-13T00:38:53.654Z,79.50
2017-12-13T00:39:27.329Z,79.50
2017-12-13T00:40:01.770Z,79.60
2017-12-13T00:40:35.451Z,79.60
2017-12-13T00:41:09.134Z,79.50
2017-12-13T00:41:42.908Z,79.50
2017-12-13T00:42:17.364Z,79.70
2017-12-13T00:42:51.032Z,79.70
2017-12-13T00:43:24.718Z,79.80
2017-12-13T00:43:58.385Z,79.80
2017-12-13T00:44:32.823Z,79.80
2017-12-13T00:45:06.482Z,79.80
2017-12-13T00:45:40.918Z,79.80
2017-12-13T00:46:14.580Z,79.70
2017-12-13T00:46:48.235Z,79.70
2017-12-13T00:47:21.955Z,79.60
2017-12-13T00:47:56.391Z,80.20
2017-12-13T00:48:30.052Z,79.60
2017-12-13T00:49:04.491Z,79.70
2017-12-13T00:49:38.162Z,79.60
2017-12-13T00:50:12.598Z,79.70
2017-12-13T00:50:46.290Z,79.70
2017-12-13T00:51:19.950Z,79.70
2017-12-13T00:51:54.378Z,80.10
2017-12-13T00:52:28.090Z,80.00
2017-12-13T00:53:01.758Z,80.10
2017-12-13T00:53:35.442Z,80.20
2017-12-13T00:54:09.206Z,80.10
2017-12-13T00:54:43.634Z,80.10
2017-12-13T00:55:17.327Z,80.10
2017-12-13T00:55:51.023Z,80.00
2017-12-13T00:56:24.703Z,80.00
2017-12-13T00:56:59.123Z,80.00
2017-12-13T00:57:32.834Z,79.90
2017-12-13T00:58:06.497Z,79.90
2017-12-13T00:58:40.171Z,79.90
2017-12-13T00:59:14.607Z,79.90
2017-12-13T00:59:48.277Z,79.90
2017-12-13T01:00:21.939Z,79.80
2017-12-13T01:00:55.276Z,79.70
2017-12-13T01:01:28.942Z,79.70
2017-12-13T01:02:02.614Z,79.70
2017-12-13T01:02:37.092Z,79.40
2017-12-13T01:03:10.760Z,79.30
2017-12-13T01:03:44.444Z,79.40
2017-12-13T01:04:18.115Z,79.40
2017-12-13T01:04:51.784Z,79.40
2017-12-13T01:05:25.878Z,79.60
2017-12-13T01:06:00.317Z,79.40
2017-12-13T01:06:33.987Z,79.40
2017-12-13T01:07:07.670Z,79.20
2017-12-13T01:07:42.156Z,79.10
2017-12-13T01:08:15.994Z,79.10
2017-12-13T01:08:49.671Z,79.20
2017-12-13T01:09:23.351Z,79.20
2017-12-13T01:09:57.778Z,79.10
2017-12-13T01:10:31.465Z,79.10
2017-12-13T01:11:05.227Z,79.20
2017-12-13T01:11:39.656Z,79.50
2017-12-13T01:12:13.420Z,79.50
2017-12-13T01:12:47.894Z,79.50
2017-12-13T01:13:21.567Z,79.50
2017-12-13T01:13:55.222Z,79.20
2017-12-13T01:14:29.646Z,79.20
2017-12-13T01:15:03.302Z,79.20
2017-12-13T01:15:36.972Z,79.30
2017-12-13T01:16:10.623Z,79.30
2017-12-13T01:16:44.289Z,79.10
2017-12-13T01:17:18.724Z,79.00
2017-12-13T01:17:52.413Z,78.90
2017-12-13T01:18:26.091Z,79.00
2017-12-13T01:18:59.776Z,79.20
2017-12-13T01:19:33.461Z,79.20
2017-12-13T01:20:07.306Z,79.10
2017-12-13T01:20:40.975Z,78.90
2017-12-13T01:21:14.631Z,79.00
2017-12-13T01:21:48.290Z,78.90
2017-12-13T01:22:21.955Z,79.00
2017-12-13T01:22:55.657Z,79.00
2017-12-13T01:23:29.322Z,79.00
2017-12-13T01:24:03.006Z,79.00
2017-12-13T01:24:36.705Z,78.90
2017-12-13T01:25:10.382Z,78.80
2017-12-13T01:25:44.050Z,78.90
2017-12-13T01:26:17.734Z,78.90
2017-12-13T01:26:52.220Z,78.80
2017-12-13T01:27:25.930Z,78.70
2017-12-13T01:27:59.767Z,78.60
2017-12-13T01:28:33.430Z,78.50
2017-12-13T01:29:06.761Z,78.30
2017-12-13T01:29:40.459Z,78.20
2017-12-13T01:30:14.138Z,78.40
2017-12-13T01:30:47.990Z,78.40
2017-12-13T01:31:21.666Z,78.30
2017-12-13T01:31:55.342Z,78.30
2017-12-13T01:32:29.767Z,78.40
2017-12-13T01:33:03.453Z,78.30
2017-12-13T01:33:37.110Z,78.30
2017-12-13T01:34:10.778Z,78.30
2017-12-13T01:34:44.631Z,78.30
2017-12-13T01:35:18.494Z,78.20
2017-12-13T01:35:58.767Z,78.60
2017-12-13T01:36:32.430Z,78.10
2017-12-13T01:37:06.307Z,77.90
2017-12-13T01:37:40.016Z,77.80
2017-12-13T01:38:14.492Z,78.20
2017-12-13T01:38:48.156Z,78.20
2017-12-13T01:39:21.820Z,78.30
2017-12-13T01:39:55.688Z,78.20
2017-12-13T01:40:30.115Z,78.30
2017-12-13T01:41:04.661Z,78.20
2017-12-13T01:41:38.342Z,78.20
2017-12-13T01:42:12.003Z,78.10
2017-12-13T01:42:46.446Z,78.00
2017-12-13T01:43:20.134Z,78.00
2017-12-13T01:43:53.823Z,78.00
2017-12-13T01:44:27.501Z,78.10
2017-12-13T01:45:01.183Z,78.20
2017-12-13T01:45:34.848Z,78.00
2017-12-13T01:46:09.331Z,77.80
2017-12-13T01:46:43.010Z,77.80
2017-12-13T01:47:16.683Z,77.80
2017-12-13T01:47:50.344Z,77.90
2017-12-13T01:48:23.719Z,78.00
2017-12-13T01:48:58.162Z,78.10
2017-12-13T01:49:31.819Z,78.10
2017-12-13T01:50:05.570Z,77.90
2017-12-13T01:50:39.231Z,77.90
2017-12-13T01:51:12.567Z,77.70
2017-12-13T01:51:46.994Z,77.60
2017-12-13T01:52:20.765Z,77.60
2017-12-13T01:52:55.199Z,77.70
2017-12-13T01:53:28.969Z,77.70
2017-12-13T01:54:03.395Z,78.00
2017-12-13T01:54:37.055Z,77.90
2017-12-13T01:55:10.739Z,77.90
2017-12-13T01:55:44.543Z,78.20
2017-12-13T01:56:18.992Z,77.70
2017-12-13T01:56:52.657Z,77.70
2017-12-13T01:57:27.095Z,77.60
2017-12-13T01:58:00.766Z,77.60
2017-12-13T01:58:34.532Z,77.40
2017-12-13T01:59:08.404Z,77.30
2017-12-13T01:59:42.080Z,77.40
2017-12-13T02:00:15.755Z,77.40
2017-12-13T02:00:49.095Z,77.30
2017-12-13T02:01:23.534Z,77.50
2017-12-13T02:01:57.195Z,77.50
2017-12-13T02:02:30.858Z,77.50
2017-12-13T02:03:04.196Z,77.80
2017-12-13T02:03:37.549Z,77.90
2017-12-13T02:04:10.914Z,77.90
2017-12-13T02:04:45.362Z,77.80
2017-12-13T02:05:18.695Z,77.80
2017-12-13T02:05:53.130Z,77.70
2017-12-13T02:06:26.799Z,77.70
2017-12-13T02:07:01.230Z,77.50
2017-12-13T02:07:34.566Z,77.50
2017-12-13T02:08:07.919Z,77.50
2017-12-13T02:08:41.615Z,77.60
2017-12-13T02:09:15.283Z,77.50
2017-12-13T02:09:48.946Z,77.40
2017-12-13T02:10:23.051Z,77.30
2017-12-13T02:10:57.486Z,77.40
2017-12-13T02:11:31.145Z,77.40
2017-12-13T02:12:05.239Z,78.30
2017-12-13T02:12:39.745Z,77.80
2017-12-13T02:13:13.850Z,77.70
2017-12-13T02:13:48.303Z,77.70
2017-12-13T02:14:21.641Z,77.60
2017-12-13T02:14:56.088Z,77.60
2017-12-13T02:15:29.776Z,77.60
2017-12-13T02:16:03.444Z,77.60
2017-12-13T02:16:37.117Z,77.60
2017-12-13T02:17:11.554Z,77.50
2017-12-13T02:17:45.224Z,77.50
2017-12-13T02:18:18.888Z,77.40
2017-12-13T02:18:53.431Z,77.50
2017-12-13T02:19:26.445Z,77.20
2017-12-13T02:19:59.790Z,77.20
2017-12-13T02:20:33.451Z,77.10
2017-12-13T02:21:07.215Z,77.00
2017-12-13T02:21:40.886Z,77.00
2017-12-13T02:22:13.888Z,77.10
2017-12-13T02:22:47.224Z,77.60
2017-12-13T02:23:20.563Z,77.20
2017-12-13T02:23:53.963Z,77.20
2017-12-13T02:24:27.748Z,77.30
2017-12-13T02:25:01.858Z,77.40
2017-12-13T02:25:36.496Z,77.70
2017-12-13T02:26:10.178Z,77.70
2017-12-13T02:26:43.855Z,78.20
2017-12-13T02:27:17.514Z,77.30
2017-12-13T02:27:51.183Z,77.30
2017-12-13T02:28:24.855Z,77.30
2017-12-13T02:28:58.565Z,77.20
2017-12-13T02:29:32.247Z,77.10
2017-12-13T02:30:05.914Z,77.10
2017-12-13T02:30:39.610Z,77.20
2017-12-13T02:31:13.459Z,77.20
2017-12-13T02:31:47.890Z,76.90
2017-12-13T02:32:21.558Z,76.90
2017-12-13T02:32:55.999Z,77.00
2017-12-13T02:33:29.674Z,77.00
2017-12-13T02:34:03.382Z,77.50
2017-12-13T02:34:37.056Z,77.00
2017-12-13T02:35:10.742Z,77.00
2017-12-13T02:35:44.439Z,76.90
2017-12-13T02:36:18.111Z,76.80
2017-12-13T02:36:52.551Z,77.00
2017-12-13T02:37:26.230Z,77.00
2017-12-13T02:37:59.899Z,76.90
2017-12-13T02:38:33.566Z,77.10
2017-12-13T02:39:08.043Z,76.70
2017-12-13T02:39:41.730Z,77.10
2017-12-13T02:40:26.570Z,76.90
2017-12-13T02:41:01.507Z,76.60
2017-12-13T02:41:35.185Z,76.60
2017-12-13T02:42:09.038Z,76.60
2017-12-13T02:42:43.480Z,76.60
2017-12-13T02:43:17.151Z,76.60
2017-12-13T02:43:50.833Z,76.60
2017-12-13T02:44:24.718Z,76.70
2017-12-13T02:44:59.158Z,76.70
2017-12-13T02:45:32.834Z,76.70
2017-12-13T02:46:06.503Z,76.90
2017-12-13T02:46:40.998Z,76.90
2017-12-13T02:47:15.456Z,76.80
2017-12-13T02:47:49.131Z,76.80
2017-12-13T02:48:22.802Z,76.60
2017-12-13T02:48:56.473Z,76.60
2017-12-13T02:49:30.151Z,76.70
2017-12-13T02:50:03.819Z,76.70
2017-12-13T02:50:37.505Z,76.60
2017-12-13T02:51:11.166Z,76.60
2017-12-13T02:51:44.166Z,76.40
2017-12-13T02:52:17.843Z,76.40
2017-12-13T02:52:51.502Z,76.40
2017-12-13T02:53:25.946Z,76.40
2017-12-13T02:53:59.667Z,76.40
2017-12-13T02:54:33.183Z,76.40
2017-12-13T02:55:07.322Z,76.40
2017-12-13T02:55:40.360Z,76.40
2017-12-13T02:56:14.130Z,76.50
2017-12-13T02:56:47.903Z,76.40
2017-12-13T02:57:20.899Z,76.40
2017-12-13T02:57:53.903Z,76.80
2017-12-13T02:58:26.901Z,76.70
2017-12-13T02:59:00.247Z,76.60
2017-12-13T02:59:33.617Z,76.50
2017-12-13T03:00:07.326Z,76.50
2017-12-13T03:00:40.670Z,76.50
2017-12-13T03:01:14.336Z,76.30
2017-12-13T03:01:48.031Z,76.30
2017-12-13T03:02:21.706Z,76.40
2017-12-13T03:02:55.070Z,76.50
2017-12-13T03:03:28.747Z,76.50
2017-12-13T03:04:02.413Z,76.40
2017-12-13T03:04:36.535Z,76.80
2017-12-13T03:05:10.209Z,76.30
2017-12-13T03:05:44.642Z,76.10
2017-12-13T03:06:18.303Z,76.00
2017-12-13T03:06:52.743Z,76.00
2017-12-13T03:07:26.410Z,76.00
2017-12-13T03:08:00.843Z,75.50
2017-12-13T03:08:34.514Z,75.50
2017-12-13T03:09:08.170Z,75.60
2017-12-13T03:09:41.866Z,75.40
2017-12-13T03:10:16.300Z,76.10
2017-12-13T03:10:50.738Z,75.60
2017-12-13T03:11:24.403Z,75.60
2017-12-13T03:11:58.065Z,75.40
2017-12-13T03:12:31.734Z,75.40
2017-12-13T03:13:05.066Z,75.40
2017-12-13T03:13:38.403Z,75.30
2017-12-13T03:14:12.110Z,75.30
2017-12-13T03:14:46.258Z,75.30
2017-12-13T03:15:19.918Z,75.30
2017-12-13T03:15:53.573Z,75.20
2017-12-13T03:16:27.256Z,75.10
2017-12-13T03:17:00.918Z,75.10
2017-12-13T03:17:34.783Z,75.10
2017-12-13T03:18:08.467Z,75.20
2017-12-13T03:18:43.197Z,75.30
2017-12-13T03:19:16.868Z,75.30
2017-12-13T03:19:51.321Z,75.30
2017-12-13T03:20:24.719Z,75.30
2017-12-13T03:20:59.296Z,75.10
2017-12-13T03:21:32.966Z,75.20
2017-12-13T03:22:06.628Z,75.10
2017-12-13T03:22:40.315Z,74.90
2017-12-13T03:23:13.981Z,75.10
2017-12-13T03:23:47.653Z,74.80
2017-12-13T03:24:21.317Z,74.90
2017-12-13T03:24:55.005Z,74.90
2017-12-13T03:25:28.654Z,74.80
2017-12-13T03:26:02.330Z,74.70
2017-12-13T03:26:36.002Z,74.70
2017-12-13T03:27:09.662Z,74.50
2017-12-13T03:27:43.331Z,74.50
2017-12-13T03:28:17.784Z,74.50
2017-12-13T03:28:51.446Z,74.40
2017-12-13T03:29:25.932Z,74.70
2017-12-13T03:30:00.422Z,74.10
2017-12-13T03:30:34.093Z,74.70
2017-12-13T03:31:07.776Z,75.00
2017-12-13T03:31:41.490Z,74.80
2017-12-13T03:32:15.231Z,74.70
2017-12-13T03:32:49.054Z,74.70
2017-12-13T03:33:22.725Z,74.70
2017-12-13T03:33:56.389Z,75.00
2017-12-13T03:34:30.832Z,75.00
2017-12-13T03:35:05.289Z,75.00
2017-12-13T03:35:39.714Z,74.50
2017-12-13T03:36:14.158Z,75.10
2017-12-13T03:36:47.834Z,75.10
2017-12-13T03:37:21.503Z,74.70
2017-12-13T03:37:55.207Z,74.60
2017-12-13T03:38:28.874Z,74.60
2017-12-13T03:39:02.866Z,74.20
2017-12-13T03:39:37.302Z,74.20
2017-12-13T03:40:11.006Z,74.10
2017-12-13T03:40:44.671Z,74.30
2017-12-13T03:41:18.354Z,74.60
2017-12-13T03:41:52.796Z,74.30
2017-12-13T03:42:26.465Z,74.30
2017-12-13T03:43:00.138Z,74.20
2017-12-13T03:43:34.570Z,74.10
2017-12-13T03:44:08.235Z,74.20
2017-12-13T03:44:42.689Z,74.00
2017-12-13T03:45:16.374Z,74.00
2017-12-13T03:45:50.043Z,74.10
2017-12-13T03:46:23.720Z,74.20
2017-12-13T03:46:57.399Z,74.30
2017-12-13T03:47:31.855Z,74.10
2017-12-13T03:48:05.565Z,74.10
2017-12-13T03:48:39.252Z,73.90
2017-12-13T03:49:12.914Z,73.80
2017-12-13T03:49:46.588Z,73.70
2017-12-13T03:50:20.309Z,73.50
2017-12-13T03:50:53.995Z,73.50
2017-12-13T03:51:27.677Z,73.50
2017-12-13T03:52:01.365Z,73.50
2017-12-13T03:52:35.031Z,73.60
2017-12-13T03:53:08.703Z,73.60
2017-12-13T03:53:43.154Z,73.70
2017-12-13T03:54:16.824Z,73.70
2017-12-13T03:54:50.489Z,73.80
2017-12-13T03:55:24.963Z,73.70
2017-12-13T03:55:58.650Z,73.70
2017-12-13T03:56:32.351Z,73.80
2017-12-13T03:57:06.033Z,73.80
2017-12-13T03:57:39.714Z,73.90
2017-12-13T03:58:13.402Z,73.60
2017-12-13T03:58:47.075Z,73.40
2017-12-13T03:59:20.775Z,73.20
2017-12-13T03:59:54.450Z,73.20
2017-12-13T04:00:28.178Z,73.20
2017-12-13T04:01:01.850Z,73.20
2017-12-13T04:01:35.527Z,73.30
2017-12-13T04:02:09.316Z,73.00
2017-12-13T04:02:43.017Z,72.80
2017-12-13T04:03:16.757Z,73.50
2017-12-13T04:03:50.869Z,72.70
2017-12-13T04:04:24.572Z,72.70
2017-12-13T04:04:58.260Z,72.60
2017-12-13T04:05:32.165Z,72.80
2017-12-13T04:06:05.842Z,72.90
2017-12-13T04:06:39.515Z,72.80
2017-12-13T04:07:13.946Z,72.70
2017-12-13T04:07:47.613Z,72.60
2017-12-13T04:08:22.062Z,72.60
2017-12-13T04:08:55.739Z,72.60
2017-12-13T04:09:29.408Z,72.80
2017-12-13T04:10:03.076Z,73.30
2017-12-13T04:10:37.539Z,73.10
2017-12-13T04:11:11.201Z,73.10
2017-12-13T04:11:44.879Z,72.90
2017-12-13T04:12:18.543Z,72.70
2017-12-13T04:12:52.234Z,72.90
2017-12-13T04:13:25.902Z,72.80
2017-12-13T04:13:59.250Z,72.90
2017-12-13T04:14:32.934Z,72.90
2017-12-13T04:15:06.636Z,72.90
2017-12-13T04:15:40.347Z,73.20
2017-12-13T04:16:14.045Z,72.90
2017-12-13T04:16:47.706Z,72.90
2017-12-13T04:17:21.400Z,73.00
2017-12-13T04:17:55.080Z,73.20
2017-12-13T04:18:28.752Z,73.50
2017-12-13T04:19:02.417Z,73.10
2017-12-13T04:19:36.851Z,73.20
2017-12-13T04:20:10.522Z,73.10
2017-12-13T04:20:45.009Z,72.90
2017-12-13T04:21:18.671Z,72.90
2017-12-13T04:21:52.359Z,73.00
2017-12-13T04:22:26.028Z,72.90
2017-12-13T04:22:59.707Z,73.00
2017-12-13T04:23:33.399Z,72.90
2017-12-13T04:24:07.366Z,72.90
2017-12-13T04:24:42.482Z,73.20
2017-12-13T04:25:16.167Z,73.00
2017-12-13T04:25:49.889Z,73.50
2017-12-13T04:26:23.555Z,73.00
2017-12-13T04:26:57.255Z,72.90
2017-12-13T04:27:31.687Z,73.00
2017-12-13T04:28:05.351Z,72.90
2017-12-13T04:28:39.786Z,72.80
2017-12-13T04:29:13.458Z,72.80
2017-12-13T04:29:47.885Z,73.30
2017-12-13T04:30:21.648Z,73.30
2017-12-13T04:30:56.123Z,73.20
2017-12-13T04:31:29.803Z,73.20
2017-12-13T04:32:03.480Z,73.30
2017-12-13T04:32:37.195Z,73.10
2017-12-13T04:33:10.877Z,73.10
2017-12-13T04:33:44.542Z,73.30
2017-12-13T04:34:18.212Z,73.50
2017-12-13T04:34:51.931Z,73.50
2017-12-13T04:35:25.610Z,73.60
2017-12-13T04:35:59.305Z,73.60
2017-12-13T04:36:32.978Z,73.30
2017-12-13T04:37:06.645Z,73.50
2017-12-13T04:37:41.078Z,73.70
2017-12-13T04:38:14.757Z,73.70
2017-12-13T04:38:48.419Z,73.50
2017-12-13T04:39:22.905Z,73.50
2017-12-13T04:39:56.570Z,73.50
2017-12-13T04:40:30.233Z,73.40
2017-12-13T04:41:03.942Z,73.00
2017-12-13T04:41:37.613Z,73.00
2017-12-13T04:42:11.283Z,73.10
2017-12-13T04:42:45.717Z,73.40
2017-12-13T04:43:19.382Z,73.40
2017-12-13T04:43:53.816Z,73.60
2017-12-13T04:44:27.484Z,73.50
2017-12-13T04:45:01.907Z,73.90
2017-12-13T04:45:35.590Z,73.90
2017-12-13T04:46:09.307Z,74.00
2017-12-13T04:46:42.970Z,73.80
2017-12-13T04:47:16.659Z,73.90
2017-12-13T04:47:50.331Z,73.80
2017-12-13T04:48:25.020Z,73.60
2017-12-13T04:48:58.844Z,73.50
2017-12-13T04:49:33.290Z,73.30
2017-12-13T04:50:06.963Z,73.30
2017-12-13T04:50:40.640Z,73.50
2017-12-13T04:51:14.331Z,73.40
2017-12-13T04:51:48.969Z,73.10
2017-12-13T04:52:22.641Z,73.10
2017-12-13T04:52:56.305Z,73.00
2017-12-13T04:53:30.744Z,73.10
2017-12-13T04:54:04.418Z,73.10
2017-12-13T04:54:38.087Z,73.10
2017-12-13T04:55:11.771Z,73.10
2017-12-13T04:55:45.463Z,73.10
2017-12-13T04:56:20.673Z,73.00
2017-12-13T04:56:55.519Z,73.00
2017-12-13T04:57:29.951Z,73.60
2017-12-13T04:58:03.623Z,73.60
2017-12-13T04:58:38.250Z,73.60
2017-12-13T04:59:11.921Z,73.50
2017-12-13T04:59:46.350Z,73.40
2017-12-13T05:00:20.022Z,73.40
2017-12-13T05:00:54.463Z,73.50
2017-12-13T05:01:29.008Z,73.50
2017-12-13T05:02:02.678Z,73.50
2017-12-13T05:02:36.347Z,73.50
2017-12-13T05:03:10.007Z,73.70
2017-12-13T05:03:44.457Z,73.30
2017-12-13T05:04:18.126Z,73.20
2017-12-13T05:04:51.794Z,73.40
2017-12-13T05:05:26.230Z,73.30
2017-12-13T05:05:59.899Z,73.20
2017-12-13T05:06:33.595Z,73.20
2017-12-13T05:07:07.268Z,73.10
2017-12-13T05:07:41.733Z,73.10
2017-12-13T05:08:15.404Z,73.00
2017-12-13T05:08:49.077Z,72.90
2017-12-13T05:09:22.744Z,72.90
2017-12-13T05:09:57.550Z,72.60
2017-12-13T05:10:30.906Z,72.60
2017-12-13T05:11:04.245Z,72.40
2017-12-13T05:11:37.955Z,72.40
2017-12-13T05:12:11.293Z,72.80
2017-12-13T05:12:45.724Z,72.70
2017-12-13T05:13:19.398Z,72.70
2017-12-13T05:13:53.070Z,72.30
2017-12-13T05:14:27.525Z,71.90
2017-12-13T05:15:01.197Z,71.90
2017-12-13T05:15:35.811Z,72.30
2017-12-13T05:16:09.490Z,72.30
2017-12-13T05:16:43.422Z,72.30
2017-12-13T05:17:17.286Z,72.40
2017-12-13T05:17:50.986Z,72.80
2017-12-13T05:18:24.662Z,72.70
2017-12-13T05:18:58.439Z,72.60
2017-12-13T05:19:32.373Z,72.90
2017-12-13T05:20:06.035Z,72.80
2017-12-13T05:20:39.366Z,72.80
2017-12-13T05:21:13.034Z,72.80
2017-12-13T05:21:46.722Z,72.80
2017-12-13T05:22:20.386Z,72.50
2017-12-13T05:22:54.058Z,72.50
2017-12-13T05:23:28.496Z,72.90
2017-12-13T05:24:02.175Z,72.90
2017-12-13T05:24:35.904Z,72.90
2017-12-13T05:25:09.567Z,72.70
2017-12-13T05:25:43.244Z,72.50
2017-12-13T05:26:18.047Z,72.50
2017-12-13T05:26:52.515Z,72.50
2017-12-13T05:27:26.198Z,72.50
2017-12-13T05:27:59.884Z,72.60
2017-12-13T05:28:33.561Z,72.50
2017-12-13T05:29:07.234Z,72.50
2017-12-13T05:29:41.113Z,72.70
2017-12-13T05:30:14.790Z,72.80
2017-12-13T05:30:49.256Z,72.70
2017-12-13T05:31:22.961Z,72.60
2017-12-13T05:31:58.092Z,72.40
2017-12-13T05:32:31.773Z,72.00
2017-12-13T05:33:05.439Z,71.70
2017-12-13T05:33:39.265Z,71.70
2017-12-13T05:34:12.950Z,72.10
2017-12-13T05:34:46.621Z,72.10
2017-12-13T05:35:20.382Z,72.00
2017-12-13T05:35:53.907Z,72.00
2017-12-13T05:36:27.630Z,71.70
2017-12-13T05:37:02.187Z,72.00
2017-12-13T05:37:35.875Z,72.00
2017-12-13T05:38:09.548Z,71.90
2017-12-13T05:38:43.251Z,72.00
2017-12-13T05:39:16.920Z,71.80
2017-12-13T05:39:50.598Z,71.70
2017-12-13T05:40:25.044Z,71.50
2017-12-13T05:40:58.698Z,71.60
2017-12-13T05:41:32.386Z,71.90
2017-12-13T05:42:06.109Z,72.00
2017-12-13T05:42:39.781Z,71.90
2017-12-13T05:43:13.465Z,71.70
2017-12-13T05:43:47.150Z,72.00
2017-12-13T05:44:20.979Z,71.90
2017-12-13T05:44:55.454Z,71.90
2017-12-13T05:45:29.131Z,71.60
2017-12-13T05:46:03.595Z,71.40
2017-12-13T05:46:37.272Z,71.40
2017-12-13T05:47:10.995Z,71.60
2017-12-13T05:47:44.685Z,71.60
2017-12-13T05:48:18.357Z,72.20
2017-12-13T05:48:52.043Z,72.10
2017-12-13T05:49:25.714Z,72.30
2017-12-13T05:49:59.377Z,72.20
2017-12-13T05:50:33.053Z,72.00
2017-12-13T05:51:07.495Z,72.00
2017-12-13T05:51:41.163Z,72.00
2017-12-13T05:52:14.860Z,71.60
2017-12-13T05:52:48.545Z,71.70
2017-12-13T05:53:22.320Z,71.60
2017-12-13T05:53:56.763Z,72.00
2017-12-13T05:54:30.432Z,72.00
2017-12-13T05:55:04.106Z,71.80
2017-12-13T05:55:38.591Z,72.20
2017-12-13T05:56:12.251Z,72.10
2017-12-13T05:56:45.991Z,72.40
2017-12-13T05:57:20.449Z,72.40
2017-12-13T05:57:54.122Z,72.30
2017-12-13T05:58:27.812Z,72.30
2017-12-13T05:59:01.474Z,72.50
2017-12-13T05:59:35.915Z,72.30
2017-12-13T06:00:09.583Z,72.30
2017-12-13T06:00:43.278Z,72.20
2017-12-13T06:01:16.951Z,72.60
2017-12-13T06:01:51.390Z,72.80
2017-12-13T06:02:25.087Z,72.80
2017-12-13T06:02:58.772Z,72.70
2017-12-13T06:03:32.442Z,72.60
2017-12-13T06:04:06.119Z,72.70
2017-12-13T06:04:40.559Z,72.90
2017-12-13T06:05:14.315Z,72.90
2017-12-13T06:05:48.891Z,72.90
2017-12-13T06:06:22.551Z,73.00
2017-12-13T06:06:56.243Z,72.90
2017-12-13T06:07:29.941Z,72.90
2017-12-13T06:08:03.626Z,72.80
2017-12-13T06:08:37.306Z,72.80
2017-12-13T06:09:10.974Z,72.80
2017-12-13T06:09:44.665Z,72.70
2017-12-13T06:10:18.340Z,72.60
2017-12-13T06:10:52.791Z,72.90
2017-12-13T06:11:26.472Z,72.80
2017-12-13T06:12:00.159Z,72.90
2017-12-13T06:12:33.862Z,73.10
2017-12-13T06:13:07.540Z,73.00
2017-12-13T06:13:41.218Z,73.10
2017-12-13T06:14:14.896Z,73.10
2017-12-13T06:14:48.586Z,73.30
2017-12-13T06:15:23.096Z,73.40
2017-12-13T06:15:57.541Z,73.40
2017-12-13T06:16:31.219Z,73.40
2017-12-13T06:17:04.882Z,73.50
2017-12-13T06:17:38.969Z,73.40
2017-12-13T06:18:13.436Z,73.70
2017-12-13T06:18:47.126Z,73.70
2017-12-13T06:19:20.824Z,73.70
2017-12-13T06:19:54.495Z,73.90
2017-12-13T06:20:28.239Z,74.20
2017-12-13T06:21:02.686Z,74.40
2017-12-13T06:21:36.366Z,74.40
2017-12-13T06:22:10.051Z,74.50
2017-12-13T06:22:43.791Z,74.70
2017-12-13T06:23:17.506Z,74.90
2017-12-13T06:23:51.957Z,75.30
2017-12-13T06:24:25.643Z,75.30
2017-12-13T06:24:59.325Z,75.10
2017-12-13T06:25:33.021Z,75.10
2017-12-13T06:26:06.708Z,75.10
2017-12-13T06:26:40.392Z,75.10
2017-12-13T06:27:14.078Z,75.10
2017-12-13T06:27:47.796Z,75.10
2017-12-13T06:28:21.462Z,75.20
2017-12-13T06:28:55.169Z,75.50
2017-12-13T06:29:28.880Z,75.50
2017-12-13T06:30:02.574Z,75.50
2017-12-13T06:30:36.266Z,75.50
2017-12-13T06:31:09.942Z,75.60
2017-12-13T06:31:43.622Z,75.50
2017-12-13T06:32:17.309Z,75.50
2017-12-13T06:32:51.066Z,75.50
2017-12-13T06:33:24.754Z,75.60
2017-12-13T06:33:59.198Z,75.60
2017-12-13T06:34:32.881Z,75.60
2017-12-13T06:35:06.570Z,75.80
2017-12-13T06:35:39.913Z,75.70
2017-12-13T06:36:14.356Z,75.60
2017-12-13T06:36:48.039Z,75.60
2017-12-13T06:37:21.716Z,75.70
2017-12-13T06:37:55.426Z,75.50
2017-12-13T06:38:29.103Z,75.40
2017-12-13T06:39:02.784Z,75.40
2017-12-13T06:39:36.451Z,76.00
2017-12-13T06:40:10.889Z,75.50
2017-12-13T06:40:44.567Z,75.30
2017-12-13T06:41:18.678Z,75.50
2017-12-13T06:41:52.371Z,75.50
2017-12-13T06:42:26.062Z,75.60
2017-12-13T06:42:59.828Z,75.70
2017-12-13T06:43:34.304Z,76.00
2017-12-13T06:44:08.137Z,76.00
2017-12-13T06:44:42.589Z,76.00
2017-12-13T06:45:16.261Z,76.00
2017-12-13T06:45:49.962Z,76.00
2017-12-13T06:46:23.640Z,75.90
2017-12-13T06:46:57.343Z,76.00
2017-12-13T06:47:31.019Z,75.90
2017-12-13T06:48:04.724Z,76.00
2017-12-13T06:48:38.391Z,76.20
2017-12-13T06:49:12.076Z,76.20
2017-12-13T06:49:45.747Z,76.20
2017-12-13T06:50:20.203Z,76.30
2017-12-13T06:50:53.885Z,76.30
2017-12-13T06:51:27.563Z,76.10
2017-12-13T06:52:01.225Z,75.90
2017-12-13T06:52:35.683Z,76.00
2017-12-13T06:53:09.388Z,76.00
2017-12-13T06:53:43.052Z,76.00
2017-12-13T06:54:16.721Z,76.00
2017-12-13T06:54:50.398Z,75.80
2017-12-13T06:55:24.836Z,75.70
2017-12-13T06:55:58.525Z,75.70
2017-12-13T06:56:32.203Z,75.70
2017-12-13T06:57:05.924Z,75.70
2017-12-13T06:57:39.655Z,75.70
2017-12-13T06:58:14.447Z,75.80
2017-12-13T06:58:48.136Z,75.80
2017-12-13T06:59:28.123Z,75.80
2017-12-13T07:00:01.828Z,76.10
2017-12-13T07:00:35.505Z,75.90
2017-12-13T07:01:09.184Z,75.80
2017-12-13T07:01:42.960Z,75.70
2017-12-13T07:02:17.416Z,75.70
2017-12-13T07:02:51.083Z,75.70
2017-12-13T07:03:24.857Z,75.60
2017-12-13T07:03:58.662Z,75.60
2017-12-13T07:04:32.354Z,75.80
2017-12-13T07:05:06.040Z,75.60
2017-12-13T07:05:39.724Z,75.60
2017-12-13T07:06:14.166Z,75.60
2017-12-13T07:06:47.847Z,75.60
2017-12-13T07:07:21.511Z,75.80
2017-12-13T07:07:55.206Z,75.90
2017-12-13T07:08:28.899Z,75.90
2017-12-13T07:09:02.562Z,76.00
2017-12-13T07:09:36.217Z,76.00
2017-12-13T07:10:09.944Z,76.00
2017-12-13T07:10:44.390Z,75.90
2017-12-13T07:11:18.054Z,75.80
2017-12-13T07:11:52.501Z,75.80
2017-12-13T07:12:26.161Z,75.80
2017-12-13T07:12:59.832Z,75.70
2017-12-13T07:13:34.278Z,75.90
2017-12-13T07:14:07.946Z,75.90
2017-12-13T07:14:42.370Z,75.90
2017-12-13T07:15:16.029Z,75.90
2017-12-13T07:15:50.475Z,75.90
2017-12-13T07:16:24.146Z,75.90